createdAt,value
2022-11-18T00:01:50.888Z,0.63
2022-11-18T00:04:53.282Z,0.70
2022-11-18T00:07:55.710Z,1.00
2022-11-18T00:10:58.864Z,0.83
2022-11-18T00:14:19.570Z,0.80
2022-11-18T00:17:22.401Z,0.80
2022-11-18T00:20:24.852Z,1.00
2022-11-18T00:23:27.554Z,0.82
2022-11-18T00:26:29.655Z,0.80
2022-11-18T00:29:32.847Z,1.00
2022-11-18T00:32:35.096Z,0.75
2022-11-18T00:35:37.830Z,1.08
2022-11-18T00:38:40.585Z,0.98
2022-11-18T00:42:02.155Z,0.68
2022-11-18T00:45:04.584Z,0.90
2022-11-18T00:48:07.129Z,0.90
2022-11-18T00:51:17.232Z,0.85
2022-11-18T00:54:19.699Z,0.80
2022-11-18T00:57:21.589Z,0.80
2022-11-18T01:00:24.614Z,1.02
2022-11-18T01:03:28.404Z,0.80
2022-11-18T01:06:31.788Z,0.70
2022-11-18T01:09:34.026Z,0.88
2022-11-18T01:12:54.931Z,1.10
2022-11-18T01:15:59.110Z,0.90
2022-11-18T01:19:01.443Z,1.02
2022-11-18T01:22:04.109Z,1.02
2022-11-18T01:25:07.931Z,0.90
2022-11-18T01:28:11.292Z,0.80
2022-11-18T01:31:16.586Z,0.80
2022-11-18T01:34:18.487Z,0.80
2022-11-18T01:37:20.873Z,0.80
2022-11-18T01:40:23.284Z,0.93
2022-11-18T01:43:26.090Z,0.80
2022-11-18T01:46:35.433Z,0.90
2022-11-18T01:49:38.113Z,0.80
2022-11-18T01:52:41.760Z,0.82
2022-11-18T01:55:49.243Z,0.70
2022-11-18T01:58:58.073Z,0.95
2022-11-18T02:02:03.335Z,0.80
2022-11-18T02:05:08.074Z,0.88
2022-11-18T02:08:11.306Z,1.17
2022-11-18T02:11:34.601Z,0.98
2022-11-18T02:14:40.937Z,0.90
2022-11-18T02:17:53.264Z,0.90
2022-11-18T02:21:12.233Z,1.30
2022-11-18T02:24:42.851Z,1.00
2022-11-18T02:28:04.666Z,0.98
2022-11-18T02:31:18.055Z,0.75
2022-11-18T02:34:26.782Z,1.03
2022-11-18T02:37:38.012Z,0.80
2022-11-18T02:40:47.871Z,0.90
2022-11-18T02:43:54.444Z,1.00
2022-11-18T02:47:05.258Z,0.80
2022-11-18T02:50:12.895Z,0.80
2022-11-18T02:53:19.143Z,1.00
2022-11-18T02:56:22.230Z,0.70
2022-11-18T02:59:24.705Z,0.80
2022-11-18T03:02:26.863Z,0.90
2022-11-18T03:05:49.970Z,0.90
2022-11-18T03:09:06.048Z,1.13
2022-11-18T03:12:30.848Z,0.70
2022-11-18T03:15:56.257Z,0.80
2022-11-18T03:19:29.001Z,0.98
2022-11-18T03:22:52.477Z,0.80
2022-11-18T03:25:56.734Z,0.63
2022-11-18T03:29:08.412Z,0.80
2022-11-18T03:32:18.202Z,1.08
2022-11-18T03:35:26.580Z,0.70
2022-11-18T03:38:34.012Z,0.70
2022-11-18T03:41:40.979Z,0.80
2022-11-18T03:44:52.736Z,0.93
2022-11-18T03:48:08.464Z,1.05
2022-11-18T03:51:17.244Z,0.85
2022-11-18T03:54:24.730Z,0.90
2022-11-18T03:57:44.370Z,0.85
2022-11-18T04:00:50.419Z,0.85
2022-11-18T04:03:53.709Z,0.88
2022-11-18T04:07:26.216Z,0.85
2022-11-18T04:10:38.213Z,0.85
2022-11-18T04:13:40.623Z,0.80
2022-11-18T04:16:44.978Z,0.98
2022-11-18T04:19:47.624Z,1.02
2022-11-18T04:22:50.400Z,0.70
2022-11-18T04:25:52.737Z,0.90
2022-11-18T04:28:55.252Z,0.65
2022-11-18T04:31:57.893Z,0.65
2022-11-18T04:35:00.602Z,0.70
2022-11-18T04:38:04.459Z,0.77
2022-11-18T04:41:07.320Z,0.75
2022-11-18T04:44:13.414Z,0.70
2022-11-18T04:47:16.256Z,0.70
2022-11-18T04:50:18.457Z,1.05
2022-11-18T04:53:21.203Z,0.88
2022-11-18T04:56:23.176Z,0.80
2022-11-18T04:59:28.391Z,0.70
2022-11-18T05:02:30.835Z,0.80
2022-11-18T05:05:34.812Z,0.70
2022-11-18T05:08:36.902Z,0.70
2022-11-18T05:11:59.133Z,0.98
2022-11-18T05:15:01.409Z,0.80
2022-11-18T05:18:04.227Z,0.63
2022-11-18T05:21:07.609Z,0.80
2022-11-18T05:24:10.698Z,0.80
2022-11-18T05:27:14.005Z,0.80
2022-11-18T05:30:16.274Z,0.60
2022-11-18T05:33:19.022Z,0.85
2022-11-18T05:36:22.500Z,0.88
2022-11-18T05:39:25.003Z,0.90
2022-11-18T05:42:46.192Z,0.85
2022-11-18T05:45:51.226Z,1.10
2022-11-18T05:48:54.233Z,0.90
2022-11-18T05:51:56.650Z,0.52
2022-11-18T05:54:59.211Z,0.82
2022-11-18T05:58:01.091Z,0.73
2022-11-18T06:01:06.982Z,0.93
2022-11-18T06:04:20.525Z,0.85
2022-11-18T06:07:27.053Z,0.60
2022-11-18T06:10:33.368Z,0.60
2022-11-18T06:13:42.828Z,0.70
2022-11-18T06:16:50.364Z,0.50
2022-11-18T06:19:53.458Z,0.80
2022-11-18T06:22:58.393Z,0.75
2022-11-18T06:26:01.563Z,0.88
2022-11-18T06:29:06.668Z,0.70
2022-11-18T06:32:09.988Z,0.90
2022-11-18T06:35:12.485Z,0.90
2022-11-18T06:38:15.146Z,0.80
2022-11-18T06:41:17.165Z,0.80
2022-11-18T06:44:19.331Z,1.05
2022-11-18T06:47:21.543Z,0.70
2022-11-18T06:50:24.410Z,0.88
2022-11-18T06:53:26.429Z,0.70
2022-11-18T06:56:29.210Z,0.73
2022-11-18T06:59:33.380Z,0.80
2022-11-18T07:02:39.152Z,1.05
2022-11-18T07:05:41.227Z,0.75
2022-11-18T07:08:44.866Z,0.90
2022-11-18T07:11:46.990Z,0.70
2022-11-18T07:14:50.412Z,0.80
2022-11-18T07:17:53.757Z,0.80
2022-11-18T07:20:56.775Z,0.70
2022-11-18T07:23:59.025Z,0.75
2022-11-18T07:27:01.595Z,0.70
2022-11-18T07:30:04.133Z,0.70
2022-11-18T07:33:06.685Z,0.90
2022-11-18T07:36:12.000Z,1.00
2022-11-18T07:39:14.378Z,0.80
2022-11-18T07:42:16.539Z,0.68
2022-11-18T07:45:19.148Z,0.70
2022-11-18T07:48:21.498Z,0.85
2022-11-18T07:51:33.166Z,0.70
2022-11-18T07:54:35.553Z,0.75
2022-11-18T07:57:38.248Z,1.00
2022-11-18T08:00:40.306Z,1.05
2022-11-18T08:03:43.580Z,0.80
2022-11-18T08:06:45.872Z,0.90
2022-11-18T08:09:48.582Z,1.00
2022-11-18T08:12:50.751Z,0.80
2022-11-18T08:15:54.344Z,1.17
2022-11-18T08:18:58.449Z,1.20
2022-11-18T08:25:04.330Z,1.50
2022-11-18T08:28:07.432Z,1.20
2022-11-18T08:31:15.384Z,1.38
2022-11-18T08:34:18.057Z,1.10
2022-11-18T08:37:20.209Z,1.17
2022-11-18T08:40:22.820Z,1.60
2022-11-18T08:43:24.791Z,1.15
2022-11-18T08:46:27.543Z,1.33
2022-11-18T08:49:32.522Z,1.67
2022-11-18T08:52:35.999Z,1.30
2022-11-18T08:55:38.117Z,1.55
2022-11-18T08:58:42.361Z,1.30
2022-11-18T09:01:47.866Z,1.25
2022-11-18T09:04:52.607Z,1.35
2022-11-18T09:07:55.115Z,0.87
2022-11-18T09:10:58.635Z,1.03
2022-11-18T09:15:11.293Z,1.00
2022-11-18T09:17:25.806Z,0.82
2022-11-18T09:20:59.640Z,0.88
2022-11-18T09:24:05.385Z,0.80
2022-11-18T09:27:15.186Z,1.20
2022-11-18T09:30:19.315Z,0.90
2022-11-18T09:33:22.525Z,0.90
2022-11-18T09:36:26.164Z,0.90
2022-11-18T09:39:28.948Z,1.08
2022-11-18T09:42:40.630Z,0.88
2022-11-18T09:45:50.456Z,1.13
2022-11-18T09:49:11.902Z,0.90
2022-11-18T09:52:22.468Z,0.75
2022-11-18T09:55:25.174Z,1.00
2022-11-18T09:58:37.658Z,0.65
2022-11-18T10:01:40.056Z,0.98
2022-11-18T10:04:43.267Z,0.90
2022-11-18T10:07:49.490Z,1.00
2022-11-18T10:11:14.888Z,0.85
2022-11-18T10:15:06.345Z,1.00
2022-11-18T10:18:44.979Z,0.68
2022-11-18T10:24:54.289Z,1.02
2022-11-18T10:28:14.419Z,0.82
2022-11-18T10:31:18.053Z,0.80
2022-11-18T10:34:21.844Z,1.20
2022-11-18T10:41:05.530Z,1.05
2022-11-18T10:44:28.696Z,0.80
2022-11-18T10:47:33.805Z,0.93
2022-11-18T10:50:37.615Z,0.80
2022-11-18T10:53:43.834Z,1.30
2022-11-18T10:57:14.573Z,0.80
2022-11-18T11:00:44.566Z,0.70
2022-11-18T11:04:04.958Z,0.85
2022-11-18T11:07:27.129Z,0.80
2022-11-18T11:10:30.169Z,0.80
2022-11-18T11:13:36.259Z,0.85
2022-11-18T11:17:02.677Z,0.80
2022-11-18T11:20:10.718Z,0.90
2022-11-18T11:23:22.143Z,0.80
2022-11-18T11:30:08.173Z,0.85
2022-11-18T11:33:20.134Z,0.70
2022-11-18T11:36:31.507Z,0.77
2022-11-18T11:40:01.844Z,0.75
2022-11-18T11:43:32.412Z,0.80
2022-11-18T11:47:17.767Z,0.90
2022-11-18T11:50:20.479Z,1.88
2022-11-18T11:54:06.887Z,1.35
2022-11-18T11:57:38.855Z,1.65
2022-11-18T12:00:52.156Z,1.10
2022-11-18T12:04:28.757Z,1.20
2022-11-18T12:07:37.962Z,1.20
2022-11-18T12:11:12.089Z,1.30
2022-11-18T12:14:38.625Z,1.10
2022-11-18T12:18:15.037Z,1.27
2022-11-18T12:21:46.757Z,1.35
2022-11-18T12:24:49.697Z,1.42
2022-11-18T12:27:59.975Z,1.30
2022-11-18T12:31:18.699Z,1.10
2022-11-18T12:34:27.408Z,1.30
2022-11-18T12:37:39.473Z,1.20
2022-11-18T12:40:52.694Z,1.30
2022-11-18T12:44:22.808Z,1.10
2022-11-18T12:47:40.601Z,1.65
2022-11-18T12:50:53.867Z,1.30
2022-11-18T12:53:56.219Z,1.30
2022-11-18T12:57:21.467Z,1.20
2022-11-18T13:00:25.163Z,1.40
2022-11-18T13:03:29.344Z,1.10
2022-11-18T13:06:39.401Z,1.67
2022-11-18T13:09:42.397Z,1.00
2022-11-18T13:12:44.857Z,1.42
2022-11-18T13:16:08.997Z,1.25
2022-11-18T13:19:22.826Z,1.92
2022-11-18T13:22:44.409Z,1.55
2022-11-18T13:25:49.242Z,1.58
2022-11-18T13:29:22.407Z,1.20
2022-11-18T13:32:28.990Z,1.25
2022-11-18T13:35:31.412Z,1.40
2022-11-18T13:38:44.445Z,1.17
2022-11-18T13:42:22.555Z,1.23
2022-11-18T13:45:31.170Z,1.48
2022-11-18T13:48:38.310Z,1.20
2022-11-18T13:51:42.584Z,1.10
2022-11-18T13:54:46.360Z,1.50
2022-11-18T13:57:51.713Z,1.60
2022-11-18T14:01:03.701Z,1.25
2022-11-18T14:04:17.229Z,1.30
2022-11-18T14:07:34.215Z,1.30
2022-11-18T14:10:42.572Z,1.20
2022-11-18T14:13:52.386Z,1.10
2022-11-18T14:16:59.208Z,1.40
2022-11-18T14:20:09.952Z,1.80
2022-11-18T14:23:16.842Z,1.00
2022-11-18T14:26:32.351Z,1.30
2022-11-18T14:29:34.474Z,1.30
2022-11-18T14:32:37.387Z,1.20
2022-11-18T14:35:42.494Z,1.45
2022-11-18T14:39:31.536Z,1.20
2022-11-18T14:42:14.099Z,1.30
2022-11-18T14:45:16.543Z,1.30
2022-11-18T14:48:21.887Z,1.40
2022-11-18T14:51:24.791Z,1.20
2022-11-18T14:54:27.757Z,1.20
2022-11-18T14:57:31.005Z,1.65
2022-11-18T15:00:34.261Z,1.20
2022-11-18T15:03:37.541Z,1.50
2022-11-18T15:06:41.670Z,1.20
2022-11-18T15:09:44.421Z,1.30
2022-11-18T15:12:46.702Z,1.38
2022-11-18T15:15:49.535Z,1.38
2022-11-18T15:18:54.055Z,1.90
2022-11-18T15:22:00.751Z,1.80
2022-11-18T15:25:02.746Z,1.60
2022-11-18T15:28:05.278Z,1.83
2022-11-18T15:31:11.185Z,1.25
2022-11-18T15:34:15.634Z,8.95
2022-11-18T15:37:17.798Z,7.35
2022-11-18T15:40:20.796Z,6.45
2022-11-18T15:43:23.054Z,6.57
2022-11-18T15:46:26.909Z,6.50
2022-11-18T15:49:29.684Z,7.53
2022-11-18T15:52:35.258Z,6.63
2022-11-18T15:55:37.757Z,6.15
2022-11-18T15:58:40.832Z,6.57
2022-11-18T16:01:47.083Z,15.02
2022-11-18T16:04:49.648Z,10.43
2022-11-18T16:07:55.177Z,9.15
2022-11-18T16:11:17.960Z,9.48
2022-11-18T16:14:22.291Z,8.35
2022-11-18T16:17:25.085Z,7.70
2022-11-18T16:20:27.816Z,8.30
2022-11-18T16:23:30.973Z,8.27
2022-11-18T16:26:33.840Z,7.85
2022-11-18T16:29:36.339Z,7.63
2022-11-18T16:32:38.337Z,7.13
2022-11-18T16:35:47.186Z,7.25
2022-11-18T16:38:50.580Z,6.60
2022-11-18T16:41:56.992Z,6.70
2022-11-18T16:45:01.619Z,6.18
2022-11-18T16:48:04.132Z,6.70
2022-11-18T16:51:27.844Z,6.30
2022-11-18T16:54:32.362Z,6.13
2022-11-18T16:57:35.352Z,5.00
2022-11-18T17:01:15.820Z,5.25
2022-11-18T17:04:03.213Z,4.93
2022-11-18T17:07:06.415Z,4.35
2022-11-18T17:10:19.856Z,4.35
2022-11-18T17:13:22.333Z,5.07
2022-11-18T17:16:25.856Z,4.15
2022-11-18T17:19:28.622Z,4.65
2022-11-18T17:22:30.919Z,5.07
2022-11-18T17:25:34.387Z,4.07
2022-11-18T17:28:38.607Z,4.57
2022-11-18T17:31:42.070Z,3.88
2022-11-18T17:34:44.063Z,4.10
2022-11-18T17:37:46.428Z,4.15
2022-11-18T17:40:53.927Z,4.75
2022-11-18T17:43:56.663Z,3.78
2022-11-18T17:46:59.218Z,4.97
2022-11-18T17:50:01.811Z,3.92
2022-11-18T17:53:04.762Z,3.65
2022-11-18T17:56:08.182Z,4.35
2022-11-18T17:59:10.559Z,4.78
2022-11-18T18:02:14.300Z,3.97
2022-11-18T18:05:17.085Z,4.00
2022-11-18T18:08:20.032Z,3.78
2022-11-18T18:11:22.487Z,4.13
2022-11-18T18:14:24.862Z,4.00
2022-11-18T18:17:27.153Z,4.07
2022-11-18T18:20:30.157Z,3.75
2022-11-18T18:23:32.461Z,3.85
2022-11-18T18:26:35.246Z,4.15
2022-11-18T18:29:37.330Z,3.63
2022-11-18T18:32:39.809Z,4.15
2022-11-18T18:35:42.497Z,3.78
2022-11-18T18:38:45.744Z,4.80
2022-11-18T18:41:47.918Z,4.03
2022-11-18T18:45:08.676Z,4.20
2022-11-18T18:48:12.105Z,4.95
2022-11-18T18:51:14.939Z,4.55
2022-11-18T18:54:20.137Z,4.25
2022-11-18T18:57:23.307Z,3.75
2022-11-18T19:00:25.451Z,4.18
2022-11-18T19:03:28.365Z,5.90
2022-11-18T19:06:58.989Z,5.70
2022-11-18T19:09:59.469Z,4.40
2022-11-18T19:13:01.723Z,5.70
2022-11-18T19:16:06.541Z,5.88
2022-11-18T19:19:11.787Z,4.80
2022-11-18T19:22:15.284Z,5.47
2022-11-18T19:25:17.801Z,4.22
2022-11-18T19:28:23.282Z,4.30
2022-11-18T19:31:26.687Z,3.88
2022-11-18T19:34:30.435Z,4.20
2022-11-18T19:37:33.175Z,3.97
2022-11-18T19:40:36.160Z,3.40
2022-11-18T19:43:39.313Z,4.15
2022-11-18T19:49:44.880Z,3.42
2022-11-18T19:52:50.222Z,3.80
2022-11-18T19:55:57.256Z,3.70
2022-11-18T19:59:00.041Z,4.07
2022-11-18T20:02:02.665Z,3.45
2022-11-18T20:05:24.572Z,3.83
2022-11-18T20:08:26.922Z,3.72
2022-11-18T20:11:29.779Z,3.95
2022-11-18T20:14:32.061Z,3.90
2022-11-18T20:17:35.455Z,3.53
2022-11-18T20:20:39.627Z,3.47
2022-11-18T20:23:42.332Z,3.20
2022-11-18T20:26:45.256Z,3.30
2022-11-18T20:29:50.011Z,3.10
2022-11-18T20:32:52.475Z,3.30
2022-11-18T20:35:55.431Z,4.28
2022-11-18T20:39:01.497Z,3.10
2022-11-18T20:42:22.450Z,3.75
2022-11-18T20:45:24.757Z,3.55
2022-11-18T20:48:27.777Z,3.80
2022-11-18T20:51:31.691Z,3.00
2022-11-18T20:54:34.445Z,3.20
2022-11-18T20:57:36.456Z,3.95
2022-11-18T21:00:39.511Z,3.20
2022-11-18T21:03:43.299Z,3.50
2022-11-18T21:06:45.838Z,3.25
2022-11-18T21:09:48.120Z,4.40
2022-11-18T21:13:12.921Z,3.70
2022-11-18T21:16:15.169Z,4.37
2022-11-18T21:19:18.016Z,3.85
2022-11-18T21:22:21.714Z,3.80
2022-11-18T21:25:24.059Z,3.60
2022-11-18T21:28:28.998Z,3.38
2022-11-18T21:31:32.535Z,3.40
2022-11-18T21:34:35.913Z,2.80
2022-11-18T21:37:38.195Z,3.08
2022-11-18T21:40:40.329Z,3.20
2022-11-18T21:44:04.618Z,3.45
2022-11-18T21:47:06.004Z,3.55
2022-11-18T21:50:09.028Z,3.42
2022-11-18T21:53:10.997Z,3.05
2022-11-18T21:56:16.563Z,2.70
2022-11-18T21:59:19.186Z,3.05
2022-11-18T22:02:22.369Z,2.80
2022-11-18T22:05:24.275Z,3.08
2022-11-18T22:08:26.848Z,3.40
2022-11-18T22:11:29.382Z,2.97
2022-11-18T22:14:32.591Z,2.75
2022-11-18T22:17:34.874Z,2.75
2022-11-18T22:20:37.416Z,2.75
2022-11-18T22:23:39.805Z,2.60
2022-11-18T22:26:43.816Z,2.95
2022-11-18T22:29:46.580Z,2.30
2022-11-18T22:32:51.003Z,2.60
2022-11-18T22:35:53.559Z,2.92
2022-11-18T22:38:57.808Z,2.75
2022-11-18T22:42:18.598Z,2.40
2022-11-18T22:45:21.713Z,2.30
2022-11-18T22:48:24.425Z,3.15
2022-11-18T22:51:27.490Z,2.80
2022-11-18T22:54:39.327Z,2.00
2022-11-18T22:57:45.098Z,2.40
2022-11-18T23:00:49.233Z,2.60
2022-11-18T23:03:53.482Z,2.40
2022-11-18T23:06:56.814Z,2.83
2022-11-18T23:10:00.913Z,2.22
2022-11-18T23:13:21.651Z,2.85
2022-11-18T23:16:25.864Z,2.50
2022-11-18T23:19:28.487Z,2.47
2022-11-18T23:22:31.821Z,2.40
2022-11-18T23:25:33.691Z,2.63
2022-11-18T23:28:38.392Z,2.75
2022-11-18T23:31:43.088Z,2.38
2022-11-18T23:34:45.398Z,2.15
2022-11-18T23:37:47.496Z,2.17
2022-11-18T23:40:57.114Z,2.53
2022-11-18T23:43:59.472Z,2.35
2022-11-18T23:47:01.673Z,2.50
2022-11-18T23:50:03.784Z,3.03
2022-11-18T23:53:06.210Z,2.67
2022-11-18T23:56:11.813Z,2.40
2022-11-18T23:59:14.255Z,2.42
